To NAV CANADA Home Page Login to a new session Search on AWWS site Disclaimer Vers la page française équivalente Tips FAQ What's new on the site To the Forecasts and Observations / NOTAM section To "File a Flight Plan" website Publications and other links Update of the User's profile FIC Telephone Numbers My Weather Data Folder Route Weather Data Regional Weather Data Local Weather Data To the Forecasts and Observations / NOTAM section
Request Generated 07/24/2021 at 16:10:59 UTC . Weather information available at that time is displayed.

METAR/TAF

If you find any discrepancies between the coded METAR/TAF and the plain language METAR/TAF please use the coded METAR/TAF. LWIS bulletins are not decoded in plain language.

CALGARY/SPRINGBANK/AB    (show WxCam)

METAR CYBW 241600Z AUTO 00000KT 9SM FEW046 16/05 A3017 RMK SLP220 DENSITY ALT 4 0FT=
METAR
LOCATION
CYBW - CALGARY/SPRINGBANK/AB
DATE - TIME
24 JULY 2021 - 1600 UTC
WIND
CALM
VISIBILITY
9 STAT.  MILES
RUNWAY VISUAL RANGE
WEATHER
CLOUDINESS
FEW CLOUDS (1/8 - 2/8) 4600  FT
TEMP / DEWPOINT
16 C / 5 C
ALTIMETER
30.17 IN HG
RECENT WEATHER
WIND SHEAR

METAR CYBW 241500Z AUTO 33004KT 280V060 9SM CLR 13/05 A3019 RMK SLP226 DENSITY T 4300FT=
METAR
LOCATION
CYBW - CALGARY/SPRINGBANK/AB
DATE - TIME
24 JULY 2021 - 1500 UTC
WIND
330 TRUE @ 4  KNOTS
VARIATION
280 <-> 60  DEG
VISIBILITY
9 STAT.  MILES
RUNWAY VISUAL RANGE
WEATHER
CLOUDINESS
CLEAR SKY
TEMP / DEWPOINT
13 C / 5 C
ALTIMETER
30.19 IN HG
RECENT WEATHER
WIND SHEAR

METAR CYBW 241400Z AUTO 31006KT 9SM CLR 09/05 A3019 RMK SLP226=
METAR
LOCATION
CYBW - CALGARY/SPRINGBANK/AB
DATE - TIME
24 JULY 2021 - 1400 UTC
WIND
310 TRUE @ 6  KNOTS
VISIBILITY
9 STAT.  MILES
RUNWAY VISUAL RANGE
WEATHER
CLOUDINESS
CLEAR SKY
TEMP / DEWPOINT
9 C / 5 C
ALTIMETER
30.19 IN HG
RECENT WEATHER
WIND SHEAR

TAF CYBW 241138Z 2412/2424 19008KT P6SM SKC TEMPO 2412/2420 5SM FU HZ FM242000 16012KT P6SM FEW070 RMK FCST BASED ON AUTO OBS. NXT FCST BY 241800Z=
TAF
LOCATION

CYBW - CALGARY/SPRINGBANK/AB
VALIDITY [UTC]
24 JUL - 1138 to
25 JUL - 0000
 
TIMES
[UTC]
WIND
[DEGREES TRUE]
VISIBILITY
[STAT. MILES]
WEATHER
CLOUDINESS
[FEET AGL]
 
24 JUL - 1200 to
24 JUL - 2000
190 @ 8 KNOTS
6+
NIL
CLEAR SKY
TEMPORARY CHANGES
24 JUL - 1200 to
24 JUL - 2000
 
5
SMOKE
HAZE
 
 
24 JUL - 2000 to
25 JUL - 0000
160 @ 12 KNOTS
6+
NIL
7000 FEW
REMARKS
THE FORECAST IS BASED ON AUTOMATIC OBSERVATIONS - THE NEXT FORECAST WILL BE ISSUED BY 1800 UTC ON DAY 24


Your time UTC time
Weather data provided by Environment Canada and NAV CANADA